sensor_id;sensor_type;location;lat;lon;timestamp;temperature;humidity
19586;DHT22;9939;49.246;9.106;2023-03-14T00:00:09;10.60;99.90
19586;DHT22;9939;49.246;9.106;2023-03-14T00:02:37;10.60;99.90
19586;DHT22;9939;49.246;9.106;2023-03-14T00:05:04;10.60;99.90
19586;DHT22;9939;49.246;9.106;2023-03-14T00:07:33;10.60;99.90
19586;DHT22;9939;49.246;9.106;2023-03-14T00:10:02;10.70;99.90
19586;DHT22;9939;49.246;9.106;2023-03-14T00:12:31;10.70;99.90
19586;DHT22;9939;49.246;9.106;2023-03-14T00:14:58;10.60;99.90
19586;DHT22;9939;49.246;9.106;2023-03-14T00:17:26;10.60;99.90
19586;DHT22;9939;49.246;9.106;2023-03-14T00:19:54;10.70;99.90
19586;DHT22;9939;49.246;9.106;2023-03-14T00:22:21;10.70;99.90
19586;DHT22;9939;49.246;9.106;2023-03-14T00:24:48;10.70;99.90
19586;DHT22;9939;49.246;9.106;2023-03-14T00:27:14;10.80;99.90
19586;DHT22;9939;49.246;9.106;2023-03-14T00:29:42;10.80;99.90
19586;DHT22;9939;49.246;9.106;2023-03-14T00:32:09;10.80;99.90
19586;DHT22;9939;49.246;9.106;2023-03-14T00:34:39;10.80;99.90
19586;DHT22;9939;49.246;9.106;2023-03-14T00:37:06;10.70;99.90
19586;DHT22;9939;49.246;9.106;2023-03-14T00:39:33;10.70;99.90
19586;DHT22;9939;49.246;9.106;2023-03-14T00:41:59;10.70;99.90
19586;DHT22;9939;49.246;9.106;2023-03-14T00:44:28;10.80;99.90
19586;DHT22;9939;49.246;9.106;2023-03-14T00:46:55;10.70;99.90
19586;DHT22;9939;49.246;9.106;2023-03-14T00:49:21;10.70;99.90
19586;DHT22;9939;49.246;9.106;2023-03-14T00:51:50;10.70;99.90
19586;DHT22;9939;49.246;9.106;2023-03-14T00:54:18;10.70;99.90
19586;DHT22;9939;49.246;9.106;2023-03-14T00:56:45;10.80;99.90
19586;DHT22;9939;49.246;9.106;2023-03-14T00:59:12;10.70;99.90
19586;DHT22;9939;49.246;9.106;2023-03-14T01:01:39;10.70;99.90
19586;DHT22;9939;49.246;9.106;2023-03-14T01:04:07;10.70;99.90
19586;DHT22;9939;49.246;9.106;2023-03-14T01:06:34;10.70;99.90
19586;DHT22;9939;49.246;9.106;2023-03-14T01:09:01;10.60;99.90
19586;DHT22;9939;49.246;9.106;2023-03-14T01:11:28;10.60;99.90
19586;DHT22;9939;49.246;9.106;2023-03-14T01:13:57;10.60;99.90
19586;DHT22;9939;49.246;9.106;2023-03-14T01:16:25;10.60;99.90
19586;DHT22;9939;49.246;9.106;2023-03-14T01:18:52;10.60;99.90
19586;DHT22;9939;49.246;9.106;2023-03-14T01:21:24;10.60;99.90
19586;DHT22;9939;49.246;9.106;2023-03-14T01:23:51;10.50;99.90
19586;DHT22;9939;49.246;9.106;2023-03-14T01:26:20;10.50;99.90
19586;DHT22;9939;49.246;9.106;2023-03-14T01:28:48;10.50;99.90
19586;DHT22;9939;49.246;9.106;2023-03-14T01:31:15;10.50;99.90
19586;DHT22;9939;49.246;9.106;2023-03-14T01:33:43;10.50;99.90
19586;DHT22;9939;49.246;9.106;2023-03-14T01:36:10;10.50;99.90
19586;DHT22;9939;49.246;9.106;2023-03-14T01:38:37;10.60;99.90
19586;DHT22;9939;49.246;9.106;2023-03-14T01:41:07;10.50;99.90
19586;DHT22;9939;49.246;9.106;2023-03-14T01:43:34;10.60;99.90
19586;DHT22;9939;49.246;9.106;2023-03-14T01:48:36;10.60;99.90
19586;DHT22;9939;49.246;9.106;2023-03-14T01:51:04;10.60;99.90
19586;DHT22;9939;49.246;9.106;2023-03-14T01:53:33;10.60;99.90
19586;DHT22;9939;49.246;9.106;2023-03-14T01:56:00;10.60;99.90
19586;DHT22;9939;49.246;9.106;2023-03-14T01:58:27;10.50;99.90
19586;DHT22;9939;49.246;9.106;2023-03-14T02:00:55;10.40;99.90
19586;DHT22;9939;49.246;9.106;2023-03-14T02:03:24;10.40;99.90
19586;DHT22;9939;49.246;9.106;2023-03-14T02:05:51;10.40;99.90
19586;DHT22;9939;49.246;9.106;2023-03-14T02:08:20;10.30;99.90
19586;DHT22;9939;49.246;9.106;2023-03-14T02:11:01;10.30;99.90
19586;DHT22;9939;49.246;9.106;2023-03-14T02:13:48;10.30;99.90
19586;DHT22;9939;49.246;9.106;2023-03-14T02:16:20;10.30;99.90
19586;DHT22;9939;49.246;9.106;2023-03-14T02:19:31;10.40;99.90
19586;DHT22;9939;49.246;9.106;2023-03-14T02:22:15;10.40;99.90
19586;DHT22;9939;49.246;9.106;2023-03-14T02:27:31;10.40;99.90
19586;DHT22;9939;49.246;9.106;2023-03-14T02:30:00;10.60;99.90
19586;DHT22;9939;49.246;9.106;2023-03-14T02:32:29;10.50;99.90
19586;DHT22;9939;49.246;9.106;2023-03-14T02:34:57;10.60;99.90
19586;DHT22;9939;49.246;9.106;2023-03-14T02:40:23;10.50;99.90
19586;DHT22;9939;49.246;9.106;2023-03-14T02:42:51;10.60;99.90
19586;DHT22;9939;49.246;9.106;2023-03-14T02:47:54;10.50;99.90
19586;DHT22;9939;49.246;9.106;2023-03-14T02:50:23;10.50;99.90
19586;DHT22;9939;49.246;9.106;2023-03-14T02:52:51;10.50;99.90
19586;DHT22;9939;49.246;9.106;2023-03-14T02:55:21;10.60;99.90
19586;DHT22;9939;49.246;9.106;2023-03-14T02:57:50;10.60;99.90
19586;DHT22;9939;49.246;9.106;2023-03-14T03:00:17;10.60;99.90
19586;DHT22;9939;49.246;9.106;2023-03-14T03:02:45;10.60;99.90
19586;DHT22;9939;49.246;9.106;2023-03-14T03:05:13;10.60;99.90
19586;DHT22;9939;49.246;9.106;2023-03-14T03:07:41;10.50;99.90
19586;DHT22;9939;49.246;9.106;2023-03-14T03:10:08;10.50;99.90
19586;DHT22;9939;49.246;9.106;2023-03-14T03:12:36;10.50;99.90
19586;DHT22;9939;49.246;9.106;2023-03-14T03:15:04;10.50;99.90
19586;DHT22;9939;49.246;9.106;2023-03-14T03:17:34;10.50;99.90
19586;DHT22;9939;49.246;9.106;2023-03-14T03:20:01;10.50;99.90
19586;DHT22;9939;49.246;9.106;2023-03-14T03:22:28;10.40;99.90
19586;DHT22;9939;49.246;9.106;2023-03-14T03:24:55;10.40;99.90
19586;DHT22;9939;49.246;9.106;2023-03-14T03:27:21;10.40;99.90
19586;DHT22;9939;49.246;9.106;2023-03-14T03:29:48;10.30;99.90
19586;DHT22;9939;49.246;9.106;2023-03-14T03:32:15;10.30;99.90
19586;DHT22;9939;49.246;9.106;2023-03-14T03:34:43;10.30;99.90
19586;DHT22;9939;49.246;9.106;2023-03-14T03:37:10;10.30;99.90
19586;DHT22;9939;49.246;9.106;2023-03-14T03:39:40;10.20;99.90
19586;DHT22;9939;49.246;9.106;2023-03-14T03:42:07;10.20;99.90
19586;DHT22;9939;49.246;9.106;2023-03-14T03:44:34;10.20;99.90
19586;DHT22;9939;49.246;9.106;2023-03-14T03:47:00;10.20;99.90
19586;DHT22;9939;49.246;9.106;2023-03-14T03:49:28;10.20;99.90
19586;DHT22;9939;49.246;9.106;2023-03-14T03:51:56;10.20;99.90
19586;DHT22;9939;49.246;9.106;2023-03-14T03:54:23;10.20;99.90
19586;DHT22;9939;49.246;9.106;2023-03-14T03:56:49;10.20;99.90
19586;DHT22;9939;49.246;9.106;2023-03-14T03:59:16;10.20;99.90
19586;DHT22;9939;49.246;9.106;2023-03-14T04:01:44;10.20;99.90
19586;DHT22;9939;49.246;9.106;2023-03-14T04:04:11;10.10;99.90
19586;DHT22;9939;49.246;9.106;2023-03-14T04:06:38;10.10;99.90
19586;DHT22;9939;49.246;9.106;2023-03-14T04:09:05;10.00;99.90
19586;DHT22;9939;49.246;9.106;2023-03-14T04:11:37;10.00;99.90
19586;DHT22;9939;49.246;9.106;2023-03-14T04:14:30;10.00;99.90
19586;DHT22;9939;49.246;9.106;2023-03-14T04:17:12;10.00;99.90
19586;DHT22;9939;49.246;9.106;2023-03-14T04:19:39;10.10;99.90
19586;DHT22;9939;49.246;9.106;2023-03-14T04:22:05;10.20;99.90
19586;DHT22;9939;49.246;9.106;2023-03-14T04:24:41;10.10;99.90
19586;DHT22;9939;49.246;9.106;2023-03-14T04:27:07;10.10;99.90
19586;DHT22;9939;49.246;9.106;2023-03-14T04:29:35;10.20;99.90
19586;DHT22;9939;49.246;9.106;2023-03-14T04:32:01;10.20;99.90
19586;DHT22;9939;49.246;9.106;2023-03-14T04:34:28;10.20;99.90
19586;DHT22;9939;49.246;9.106;2023-03-14T04:36:56;10.20;99.90
19586;DHT22;9939;49.246;9.106;2023-03-14T04:39:33;10.10;99.90
19586;DHT22;9939;49.246;9.106;2023-03-14T04:42:14;10.10;99.90
19586;DHT22;9939;49.246;9.106;2023-03-14T04:44:40;10.10;99.90
19586;DHT22;9939;49.246;9.106;2023-03-14T04:47:10;10.10;99.90
19586;DHT22;9939;49.246;9.106;2023-03-14T04:49:39;10.20;99.90
19586;DHT22;9939;49.246;9.106;2023-03-14T04:52:08;10.20;99.90
19586;DHT22;9939;49.246;9.106;2023-03-14T04:54:36;10.20;99.90
19586;DHT22;9939;49.246;9.106;2023-03-14T04:57:03;10.20;99.90
19586;DHT22;9939;49.246;9.106;2023-03-14T04:59:33;10.20;99.90
19586;DHT22;9939;49.246;9.106;2023-03-14T05:02:11;10.20;99.90
19586;DHT22;9939;49.246;9.106;2023-03-14T05:04:46;10.20;99.90
19586;DHT22;9939;49.246;9.106;2023-03-14T05:07:31;10.20;99.90
19586;DHT22;9939;49.246;9.106;2023-03-14T05:10:13;10.30;99.90
19586;DHT22;9939;49.246;9.106;2023-03-14T05:12:53;10.30;99.90
19586;DHT22;9939;49.246;9.106;2023-03-14T05:15:47;10.40;99.90
19586;DHT22;9939;49.246;9.106;2023-03-14T05:18:27;10.20;99.90
19586;DHT22;9939;49.246;9.106;2023-03-14T05:21:05;10.10;99.90
19586;DHT22;9939;49.246;9.106;2023-03-14T05:23:51;10.00;99.90
19586;DHT22;9939;49.246;9.106;2023-03-14T05:26:40;10.00;99.90
19586;DHT22;9939;49.246;9.106;2023-03-14T05:29:24;10.00;99.90
19586;DHT22;9939;49.246;9.106;2023-03-14T05:32:08;10.10;99.90
19586;DHT22;9939;49.246;9.106;2023-03-14T05:34:52;10.00;99.90
19586;DHT22;9939;49.246;9.106;2023-03-14T05:37:29;10.10;99.90
19586;DHT22;9939;49.246;9.106;2023-03-14T05:40:14;10.00;99.90
19586;DHT22;9939;49.246;9.106;2023-03-14T05:43:00;10.10;99.90
19586;DHT22;9939;49.246;9.106;2023-03-14T05:45:46;10.20;99.90
19586;DHT22;9939;49.246;9.106;2023-03-14T05:48:31;10.20;99.90
19586;DHT22;9939;49.246;9.106;2023-03-14T05:51:11;10.30;99.90
19586;DHT22;9939;49.246;9.106;2023-03-14T05:53:49;9.90;99.90
19586;DHT22;9939;49.246;9.106;2023-03-14T05:56:40;10.00;99.90
19586;DHT22;9939;49.246;9.106;2023-03-14T05:59:15;9.80;99.90
19586;DHT22;9939;49.246;9.106;2023-03-14T06:02:17;9.70;99.90
19586;DHT22;9939;49.246;9.106;2023-03-14T06:04:54;9.70;99.90
19586;DHT22;9939;49.246;9.106;2023-03-14T06:07:21;9.70;99.90
19586;DHT22;9939;49.246;9.106;2023-03-14T06:09:48;9.70;99.90
19586;DHT22;9939;49.246;9.106;2023-03-14T06:12:17;9.70;99.90
19586;DHT22;9939;49.246;9.106;2023-03-14T06:14:45;9.70;99.90
19586;DHT22;9939;49.246;9.106;2023-03-14T06:17:12;9.70;99.90
19586;DHT22;9939;49.246;9.106;2023-03-14T06:19:48;9.80;99.90
19586;DHT22;9939;49.246;9.106;2023-03-14T06:22:15;9.80;99.90
19586;DHT22;9939;49.246;9.106;2023-03-14T06:24:42;9.80;99.90
19586;DHT22;9939;49.246;9.106;2023-03-14T06:27:09;10.00;99.90
19586;DHT22;9939;49.246;9.106;2023-03-14T06:29:36;10.00;99.90
19586;DHT22;9939;49.246;9.106;2023-03-14T06:32:03;10.20;99.90
19586;DHT22;9939;49.246;9.106;2023-03-14T06:34:31;10.30;99.90
19586;DHT22;9939;49.246;9.106;2023-03-14T06:36:58;10.40;99.90
19586;DHT22;9939;49.246;9.106;2023-03-14T06:39:25;10.50;99.90
19586;DHT22;9939;49.246;9.106;2023-03-14T06:42:00;10.60;99.90
19586;DHT22;9939;49.246;9.106;2023-03-14T06:44:28;10.70;99.90
19586;DHT22;9939;49.246;9.106;2023-03-14T06:46:55;10.80;99.90
19586;DHT22;9939;49.246;9.106;2023-03-14T06:49:21;10.90;99.90
19586;DHT22;9939;49.246;9.106;2023-03-14T06:51:52;10.90;99.90
19586;DHT22;9939;49.246;9.106;2023-03-14T06:54:18;10.90;99.90
19586;DHT22;9939;49.246;9.106;2023-03-14T06:56:46;11.00;99.90
19586;DHT22;9939;49.246;9.106;2023-03-14T06:59:13;11.10;99.90
19586;DHT22;9939;49.246;9.106;2023-03-14T07:01:41;11.20;99.90
19586;DHT22;9939;49.246;9.106;2023-03-14T07:04:10;11.30;99.90
19586;DHT22;9939;49.246;9.106;2023-03-14T07:06:41;11.40;99.90
19586;DHT22;9939;49.246;9.106;2023-03-14T07:09:11;11.50;99.90
19586;DHT22;9939;49.246;9.106;2023-03-14T07:11:42;11.50;99.90
19586;DHT22;9939;49.246;9.106;2023-03-14T07:14:08;11.60;99.90
19586;DHT22;9939;49.246;9.106;2023-03-14T07:16:35;11.70;99.90
19586;DHT22;9939;49.246;9.106;2023-03-14T07:19:02;11.60;99.90
19586;DHT22;9939;49.246;9.106;2023-03-14T07:21:31;11.60;99.90
19586;DHT22;9939;49.246;9.106;2023-03-14T07:23:59;11.60;99.90
19586;DHT22;9939;49.246;9.106;2023-03-14T07:26:26;11.60;99.90
19586;DHT22;9939;49.246;9.106;2023-03-14T07:28:53;11.60;99.90
19586;DHT22;9939;49.246;9.106;2023-03-14T07:31:21;11.50;99.90
19586;DHT22;9939;49.246;9.106;2023-03-14T07:33:48;11.70;99.90
19586;DHT22;9939;49.246;9.106;2023-03-14T07:36:16;11.70;99.90
19586;DHT22;9939;49.246;9.106;2023-03-14T07:38:44;11.90;99.90
19586;DHT22;9939;49.246;9.106;2023-03-14T07:41:14;11.90;99.90
19586;DHT22;9939;49.246;9.106;2023-03-14T07:44:10;12.10;99.90
19586;DHT22;9939;49.246;9.106;2023-03-14T07:46:37;12.20;99.90
19586;DHT22;9939;49.246;9.106;2023-03-14T07:49:04;12.30;99.90
19586;DHT22;9939;49.246;9.106;2023-03-14T07:51:30;12.60;99.90
19586;DHT22;9939;49.246;9.106;2023-03-14T07:53:57;13.30;99.90
19586;DHT22;9939;49.246;9.106;2023-03-14T07:56:24;13.60;99.90
19586;DHT22;9939;49.246;9.106;2023-03-14T07:58:51;13.90;99.90
19586;DHT22;9939;49.246;9.106;2023-03-14T08:01:18;14.00;99.90
19586;DHT22;9939;49.246;9.106;2023-03-14T08:03:45;13.80;99.90
19586;DHT22;9939;49.246;9.106;2023-03-14T08:06:12;12.90;99.90
19586;DHT22;9939;49.246;9.106;2023-03-14T08:08:39;12.80;99.90
19586;DHT22;9939;49.246;9.106;2023-03-14T08:11:06;12.70;99.90
19586;DHT22;9939;49.246;9.106;2023-03-14T08:13:35;12.60;99.90
19586;DHT22;9939;49.246;9.106;2023-03-14T08:16:02;12.60;99.90
19586;DHT22;9939;49.246;9.106;2023-03-14T08:18:29;12.70;99.90
19586;DHT22;9939;49.246;9.106;2023-03-14T08:20:56;12.90;99.90
19586;DHT22;9939;49.246;9.106;2023-03-14T08:23:23;13.70;99.90
19586;DHT22;9939;49.246;9.106;2023-03-14T08:25:50;14.30;99.90
19586;DHT22;9939;49.246;9.106;2023-03-14T08:28:17;14.20;99.90
19586;DHT22;9939;49.246;9.106;2023-03-14T08:30:44;13.60;99.90
19586;DHT22;9939;49.246;9.106;2023-03-14T08:33:13;13.50;99.90
19586;DHT22;9939;49.246;9.106;2023-03-14T08:35:40;13.50;99.90
19586;DHT22;9939;49.246;9.106;2023-03-14T08:38:07;13.20;99.90
19586;DHT22;9939;49.246;9.106;2023-03-14T08:40:34;12.60;99.90
19586;DHT22;9939;49.246;9.106;2023-03-14T08:43:01;12.10;99.90
19586;DHT22;9939;49.246;9.106;2023-03-14T08:45:28;11.90;99.90
19586;DHT22;9939;49.246;9.106;2023-03-14T08:47:54;11.70;99.90
19586;DHT22;9939;49.246;9.106;2023-03-14T08:50:22;11.50;99.90
19586;DHT22;9939;49.246;9.106;2023-03-14T08:52:50;11.40;99.90
19586;DHT22;9939;49.246;9.106;2023-03-14T08:55:17;11.30;99.90
19586;DHT22;9939;49.246;9.106;2023-03-14T08:57:44;11.40;99.90
19586;DHT22;9939;49.246;9.106;2023-03-14T09:00:12;11.40;99.90
19586;DHT22;9939;49.246;9.106;2023-03-14T09:02:42;11.50;99.90
19586;DHT22;9939;49.246;9.106;2023-03-14T09:05:09;11.60;99.90
19586;DHT22;9939;49.246;9.106;2023-03-14T09:07:37;11.60;99.90
19586;DHT22;9939;49.246;9.106;2023-03-14T09:10:05;11.70;99.90
19586;DHT22;9939;49.246;9.106;2023-03-14T09:12:32;11.80;99.90
19586;DHT22;9939;49.246;9.106;2023-03-14T09:14:59;11.90;99.90
19586;DHT22;9939;49.246;9.106;2023-03-14T09:17:26;11.90;99.90
19586;DHT22;9939;49.246;9.106;2023-03-14T09:19:53;12.00;99.90
19586;DHT22;9939;49.246;9.106;2023-03-14T09:22:19;12.10;99.90
19586;DHT22;9939;49.246;9.106;2023-03-14T09:24:47;12.20;99.90
19586;DHT22;9939;49.246;9.106;2023-03-14T09:27:13;12.40;99.90
19586;DHT22;9939;49.246;9.106;2023-03-14T09:29:40;12.60;99.90
19586;DHT22;9939;49.246;9.106;2023-03-14T09:32:07;13.10;99.90
19586;DHT22;9939;49.246;9.106;2023-03-14T09:34:34;14.20;99.90
19586;DHT22;9939;49.246;9.106;2023-03-14T09:37:02;14.00;99.90
19586;DHT22;9939;49.246;9.106;2023-03-14T09:39:29;13.70;99.90
19586;DHT22;9939;49.246;9.106;2023-03-14T09:41:56;13.30;99.90
19586;DHT22;9939;49.246;9.106;2023-03-14T09:44:25;13.20;99.90
19586;DHT22;9939;49.246;9.106;2023-03-14T09:46:53;12.90;99.90
19586;DHT22;9939;49.246;9.106;2023-03-14T09:49:22;12.60;99.90
19586;DHT22;9939;49.246;9.106;2023-03-14T09:51:51;12.40;99.90
19586;DHT22;9939;49.246;9.106;2023-03-14T09:54:30;12.00;99.90
19586;DHT22;9939;49.246;9.106;2023-03-14T09:56:57;12.00;99.90
19586;DHT22;9939;49.246;9.106;2023-03-14T09:59:25;12.40;99.90
19586;DHT22;9939;49.246;9.106;2023-03-14T10:01:52;12.70;99.90
19586;DHT22;9939;49.246;9.106;2023-03-14T10:04:21;12.80;99.90
19586;DHT22;9939;49.246;9.106;2023-03-14T10:06:49;13.10;99.90
19586;DHT22;9939;49.246;9.106;2023-03-14T10:09:19;13.30;99.90
19586;DHT22;9939;49.246;9.106;2023-03-14T10:11:46;13.10;99.90
19586;DHT22;9939;49.246;9.106;2023-03-14T10:14:13;13.10;99.90
19586;DHT22;9939;49.246;9.106;2023-03-14T10:16:54;13.20;99.90
19586;DHT22;9939;49.246;9.106;2023-03-14T10:19:21;13.10;99.90
19586;DHT22;9939;49.246;9.106;2023-03-14T10:21:52;13.20;99.90
19586;DHT22;9939;49.246;9.106;2023-03-14T10:24:20;13.80;99.90
19586;DHT22;9939;49.246;9.106;2023-03-14T10:26:54;14.20;99.90
19586;DHT22;9939;49.246;9.106;2023-03-14T10:29:21;13.60;99.90
19586;DHT22;9939;49.246;9.106;2023-03-14T10:31:52;13.50;99.90
19586;DHT22;9939;49.246;9.106;2023-03-14T10:34:24;13.60;99.90
19586;DHT22;9939;49.246;9.106;2023-03-14T10:36:52;13.60;99.90
19586;DHT22;9939;49.246;9.106;2023-03-14T10:42:02;12.50;99.90
19586;DHT22;9939;49.246;9.106;2023-03-14T10:44:30;12.00;99.90
19586;DHT22;9939;49.246;9.106;2023-03-14T10:47:01;11.80;99.90
19586;DHT22;9939;49.246;9.106;2023-03-14T10:49:36;11.90;99.90
19586;DHT22;9939;49.246;9.106;2023-03-14T10:54:40;11.70;99.90
19586;DHT22;9939;49.246;9.106;2023-03-14T10:57:07;11.40;99.90
19586;DHT22;9939;49.246;9.106;2023-03-14T10:59:35;11.10;99.90
19586;DHT22;9939;49.246;9.106;2023-03-14T11:07:27;10.80;99.90
19586;DHT22;9939;49.246;9.106;2023-03-14T11:15:18;10.60;99.90
19586;DHT22;9939;49.246;9.106;2023-03-14T11:22:45;10.50;99.90
19586;DHT22;9939;49.246;9.106;2023-03-14T11:25:18;10.50;99.90
19586;DHT22;9939;49.246;9.106;2023-03-14T11:28:09;10.50;99.90
19586;DHT22;9939;49.246;9.106;2023-03-14T11:35:40;10.10;99.90
19586;DHT22;9939;49.246;9.106;2023-03-14T11:40:51;10.00;99.90
19586;DHT22;9939;49.246;9.106;2023-03-14T11:43:24;9.80;99.90
19586;DHT22;9939;49.246;9.106;2023-03-14T11:45:54;9.70;99.90
19586;DHT22;9939;49.246;9.106;2023-03-14T11:48:26;9.60;99.90
19586;DHT22;9939;49.246;9.106;2023-03-14T11:50:55;9.60;99.90
19586;DHT22;9939;49.246;9.106;2023-03-14T11:53:29;9.50;99.90
19586;DHT22;9939;49.246;9.106;2023-03-14T11:55:58;9.50;99.90
19586;DHT22;9939;49.246;9.106;2023-03-14T11:58:31;9.50;99.90
19586;DHT22;9939;49.246;9.106;2023-03-14T12:01:02;9.70;99.90
19586;DHT22;9939;49.246;9.106;2023-03-14T12:06:12;9.90;99.90
19586;DHT22;9939;49.246;9.106;2023-03-14T12:08:46;9.90;99.90
19586;DHT22;9939;49.246;9.106;2023-03-14T12:11:28;9.80;99.90
19586;DHT22;9939;49.246;9.106;2023-03-14T12:13:55;9.70;99.90
19586;DHT22;9939;49.246;9.106;2023-03-14T12:18:52;9.50;99.90
19586;DHT22;9939;49.246;9.106;2023-03-14T12:21:19;9.40;99.90
19586;DHT22;9939;49.246;9.106;2023-03-14T12:23:53;9.40;99.90
19586;DHT22;9939;49.246;9.106;2023-03-14T12:26:21;9.30;99.90
19586;DHT22;9939;49.246;9.106;2023-03-14T12:36:48;9.20;99.90
19586;DHT22;9939;49.246;9.106;2023-03-14T12:41:44;9.20;99.90
19586;DHT22;9939;49.246;9.106;2023-03-14T12:46:58;9.30;99.90
19586;DHT22;9939;49.246;9.106;2023-03-14T12:49:29;9.30;99.90
19586;DHT22;9939;49.246;9.106;2023-03-14T12:51:59;9.30;99.90
19586;DHT22;9939;49.246;9.106;2023-03-14T12:54:33;9.00;99.90
19586;DHT22;9939;49.246;9.106;2023-03-14T13:04:34;8.80;99.90
19586;DHT22;9939;49.246;9.106;2023-03-14T13:07:10;8.70;99.90
19586;DHT22;9939;49.246;9.106;2023-03-14T13:09:51;8.60;99.90
19586;DHT22;9939;49.246;9.106;2023-03-14T13:12:22;8.70;99.90
19586;DHT22;9939;49.246;9.106;2023-03-14T13:14:50;8.70;99.90
19586;DHT22;9939;49.246;9.106;2023-03-14T13:17:28;8.70;99.90
19586;DHT22;9939;49.246;9.106;2023-03-14T13:20:05;8.70;99.90
19586;DHT22;9939;49.246;9.106;2023-03-14T13:22:36;8.90;99.90
19586;DHT22;9939;49.246;9.106;2023-03-14T13:25:05;9.10;99.90
19586;DHT22;9939;49.246;9.106;2023-03-14T13:27:33;9.40;99.90
19586;DHT22;9939;49.246;9.106;2023-03-14T13:32:41;9.40;99.90
19586;DHT22;9939;49.246;9.106;2023-03-14T13:35:14;9.70;99.90
19586;DHT22;9939;49.246;9.106;2023-03-14T13:37:41;10.10;99.90
19586;DHT22;9939;49.246;9.106;2023-03-14T13:40:17;10.80;99.90
19586;DHT22;9939;49.246;9.106;2023-03-14T13:42:45;11.00;99.90
19586;DHT22;9939;49.246;9.106;2023-03-14T13:45:14;11.30;99.90
19586;DHT22;9939;49.246;9.106;2023-03-14T13:47:42;11.70;99.90
19586;DHT22;9939;49.246;9.106;2023-03-14T13:50:14;11.60;99.90
19586;DHT22;9939;49.246;9.106;2023-03-14T13:52:41;11.50;99.90
19586;DHT22;9939;49.246;9.106;2023-03-14T13:55:15;11.60;99.90
19586;DHT22;9939;49.246;9.106;2023-03-14T13:57:47;11.60;99.90
19586;DHT22;9939;49.246;9.106;2023-03-14T14:00:32;13.10;99.90
19586;DHT22;9939;49.246;9.106;2023-03-14T14:02:59;12.90;99.90
19586;DHT22;9939;49.246;9.106;2023-03-14T14:05:27;11.70;99.90
19586;DHT22;9939;49.246;9.106;2023-03-14T14:07:54;10.80;99.90
19586;DHT22;9939;49.246;9.106;2023-03-14T14:10:21;10.40;99.90
19586;DHT22;9939;49.246;9.106;2023-03-14T14:12:59;10.10;99.90
19586;DHT22;9939;49.246;9.106;2023-03-14T14:15:27;9.90;99.90
19586;DHT22;9939;49.246;9.106;2023-03-14T14:17:56;9.70;99.90
19586;DHT22;9939;49.246;9.106;2023-03-14T14:20:28;9.60;99.90
19586;DHT22;9939;49.246;9.106;2023-03-14T14:23:02;9.60;99.90
19586;DHT22;9939;49.246;9.106;2023-03-14T14:25:29;9.60;99.90
19586;DHT22;9939;49.246;9.106;2023-03-14T14:27:56;9.50;99.90
19586;DHT22;9939;49.246;9.106;2023-03-14T14:32:55;9.70;99.90
19586;DHT22;9939;49.246;9.106;2023-03-14T14:35:34;10.00;99.90
19586;DHT22;9939;49.246;9.106;2023-03-14T14:38:02;10.10;99.90
19586;DHT22;9939;49.246;9.106;2023-03-14T14:40:29;10.20;99.90
19586;DHT22;9939;49.246;9.106;2023-03-14T14:43:03;10.20;99.90
19586;DHT22;9939;49.246;9.106;2023-03-14T14:45:30;10.10;99.90
19586;DHT22;9939;49.246;9.106;2023-03-14T14:50:29;10.20;99.90
19586;DHT22;9939;49.246;9.106;2023-03-14T14:52:57;10.10;99.90
19586;DHT22;9939;49.246;9.106;2023-03-14T14:55:28;9.80;99.90
19586;DHT22;9939;49.246;9.106;2023-03-14T14:57:55;9.80;99.90
19586;DHT22;9939;49.246;9.106;2023-03-14T15:00:24;9.70;99.90
19586;DHT22;9939;49.246;9.106;2023-03-14T15:02:51;10.00;99.90
19586;DHT22;9939;49.246;9.106;2023-03-14T15:05:22;10.20;99.90
19586;DHT22;9939;49.246;9.106;2023-03-14T15:07:50;10.80;99.90
19586;DHT22;9939;49.246;9.106;2023-03-14T15:10:21;11.80;99.90
19586;DHT22;9939;49.246;9.106;2023-03-14T15:12:48;14.30;99.90
19586;DHT22;9939;49.246;9.106;2023-03-14T15:15:15;14.90;99.90
19586;DHT22;9939;49.246;9.106;2023-03-14T15:17:42;15.60;99.90
19586;DHT22;9939;49.246;9.106;2023-03-14T15:20:13;16.90;99.90
19586;DHT22;9939;49.246;9.106;2023-03-14T15:22:40;17.60;99.70
19586;DHT22;9939;49.246;9.106;2023-03-14T15:25:08;16.80;99.20
19586;DHT22;9939;49.246;9.106;2023-03-14T15:27:48;14.90;99.90
19586;DHT22;9939;49.246;9.106;2023-03-14T15:30:15;12.90;99.90
19586;DHT22;9939;49.246;9.106;2023-03-14T15:32:42;11.70;99.90
19586;DHT22;9939;49.246;9.106;2023-03-14T15:35:09;12.30;99.90
19586;DHT22;9939;49.246;9.106;2023-03-14T15:37:36;13.50;99.90
19586;DHT22;9939;49.246;9.106;2023-03-14T15:40:03;14.00;99.90
19586;DHT22;9939;49.246;9.106;2023-03-14T15:42:38;14.10;99.90
19586;DHT22;9939;49.246;9.106;2023-03-14T15:45:05;13.90;99.90
19586;DHT22;9939;49.246;9.106;2023-03-14T15:47:32;13.80;99.90
19586;DHT22;9939;49.246;9.106;2023-03-14T15:49:59;13.10;99.90
19586;DHT22;9939;49.246;9.106;2023-03-14T15:52:25;12.70;99.90
19586;DHT22;9939;49.246;9.106;2023-03-14T15:54:52;12.90;99.90
19586;DHT22;9939;49.246;9.106;2023-03-14T15:57:19;12.60;99.90
19586;DHT22;9939;49.246;9.106;2023-03-14T15:59:46;12.40;99.90
19586;DHT22;9939;49.246;9.106;2023-03-14T16:02:13;12.70;99.90
19586;DHT22;9939;49.246;9.106;2023-03-14T16:04:39;13.50;99.90
19586;DHT22;9939;49.246;9.106;2023-03-14T16:07:07;12.70;99.90
19586;DHT22;9939;49.246;9.106;2023-03-14T16:09:33;13.70;99.90
19586;DHT22;9939;49.246;9.106;2023-03-14T16:12:00;14.90;99.90
19586;DHT22;9939;49.246;9.106;2023-03-14T16:14:27;14.60;99.90
19586;DHT22;9939;49.246;9.106;2023-03-14T16:16:54;12.90;99.90
19586;DHT22;9939;49.246;9.106;2023-03-14T16:19:21;11.50;99.90
19586;DHT22;9939;49.246;9.106;2023-03-14T16:21:48;10.80;99.90
19586;DHT22;9939;49.246;9.106;2023-03-14T16:24:18;10.40;99.90
19586;DHT22;9939;49.246;9.106;2023-03-14T16:26:44;10.00;99.90
19586;DHT22;9939;49.246;9.106;2023-03-14T16:29:12;9.70;99.90
19586;DHT22;9939;49.246;9.106;2023-03-14T16:31:39;9.50;99.90
19586;DHT22;9939;49.246;9.106;2023-03-14T16:34:08;9.40;99.90
19586;DHT22;9939;49.246;9.106;2023-03-14T16:36:35;9.30;99.90
19586;DHT22;9939;49.246;9.106;2023-03-14T16:39:02;9.30;99.90
19586;DHT22;9939;49.246;9.106;2023-03-14T16:41:30;9.20;99.90
19586;DHT22;9939;49.246;9.106;2023-03-14T16:43:57;9.00;99.90
19586;DHT22;9939;49.246;9.106;2023-03-14T16:46:24;9.00;99.90
19586;DHT22;9939;49.246;9.106;2023-03-14T16:48:54;9.00;99.90
19586;DHT22;9939;49.246;9.106;2023-03-14T16:51:21;8.90;99.90
19586;DHT22;9939;49.246;9.106;2023-03-14T16:53:48;8.90;99.90
19586;DHT22;9939;49.246;9.106;2023-03-14T16:56:14;8.80;99.90
19586;DHT22;9939;49.246;9.106;2023-03-14T16:58:41;8.80;99.90
19586;DHT22;9939;49.246;9.106;2023-03-14T17:01:10;8.80;99.90
19586;DHT22;9939;49.246;9.106;2023-03-14T17:03:41;8.70;99.90
19586;DHT22;9939;49.246;9.106;2023-03-14T17:06:12;8.70;99.90
19586;DHT22;9939;49.246;9.106;2023-03-14T17:08:39;8.60;99.90
19586;DHT22;9939;49.246;9.106;2023-03-14T17:11:06;8.60;99.90
19586;DHT22;9939;49.246;9.106;2023-03-14T17:13:34;8.50;99.90
19586;DHT22;9939;49.246;9.106;2023-03-14T17:16:01;8.60;99.90
19586;DHT22;9939;49.246;9.106;2023-03-14T17:18:28;8.40;99.90